Aviation Digital Data Service (ADDS)

Output produced by METARs form (1830 UTC 19 August 2019)
found at http://www.aviationweather.gov/metar/data/
 
Forecast for: WPDL (DILLI ARPT/TIMOR, TP)
Text: TAF WPDL 191646Z 1918/2006 15006KT CAVOK
Forecast period: 1800 UTC 19 August 2019 to 0100 UTC 20 August 2019
Forecast type: FROM: standard forecast or significant change
Winds: from the SSE (150 degrees) at 7 MPH (6 knots; 3.1 m/s)
Visibility: 6 or more miles 10+ km)
Ceiling: unknown
Clouds: missing
Weather: NSW  (no significant weather)
Text: FM200100 32007KT CAVOK
Forecast period: 0100 to 0600 UTC 20 August 2019
Forecast type: FROM: standard forecast or significant change
Winds: from the NW (320 degrees) at 8 MPH (7 knots; 3.6 m/s)
Visibility: 6 or more miles 10+ km)
Ceiling: unknown
Clouds: missing
Weather: NSW  (no significant weather)